Time;durP1;ratioP1;P1;durP2;ratioP2;P2;SDS_P1;SDS_P2;PMS_P1;PMS_P2;Temp;Humidity;BMP_temperature;BMP_pressure;BME280_temperature;BME280_humidity;BME280_pressure;Samples;Min_cycle;Max_cycle;Signal;HPM_P1;HPM_P2
2021/07/30 00:02:28;;;;;;;27.90;11.93;;;;;;;30.51;100.00;100549.50;4917938;29;20028;-71
2021/07/30 00:05:14;;;;;;;23.50;12.25;;;;;;;30.20;100.00;100556.34;4918027;29;20039;-72
2021/07/30 00:08:00;;;;;;;27.40;12.35;;;;;;;30.02;100.00;100554.59;4917532;29;20063;-71
2021/07/30 00:10:47;;;;;;;26.98;12.23;;;;;;;29.90;100.00;100543.16;4916970;29;20028;-71
2021/07/30 00:13:32;;;;;;;26.98;11.77;;;;;;;29.85;100.00;100540.06;4917988;29;20466;-71
2021/07/30 00:16:18;;;;;;;31.70;12.77;;;;;;;29.56;100.00;100539.41;4917709;29;20036;-70
2021/07/30 00:19:04;;;;;;;28.92;12.02;;;;;;;29.91;100.00;100541.31;4918506;29;20028;-71
2021/07/30 00:21:50;;;;;;;22.27;12.00;;;;;;;29.85;100.00;100545.47;4918166;29;20468;-70
2021/07/30 00:24:35;;;;;;;25.38;11.57;;;;;;;29.88;100.00;100538.91;4917326;29;20063;-71
2021/07/30 00:27:21;;;;;;;23.65;11.70;;;;;;;29.49;100.00;100538.31;4917920;29;20028;-71
2021/07/30 00:30:08;;;;;;;23.90;11.70;;;;;;;29.78;100.00;100547.09;4917600;29;20190;-71
2021/07/30 00:32:54;;;;;;;27.33;11.80;;;;;;;30.00;100.00;100541.25;4917696;29;20056;-71
2021/07/30 00:35:40;;;;;;;24.23;12.23;;;;;;;29.84;100.00;100541.09;4917457;29;20375;-71
2021/07/30 00:38:25;;;;;;;23.50;11.93;;;;;;;29.60;100.00;100539.97;4916953;29;20036;-71
2021/07/30 00:41:11;;;;;;;26.08;12.05;;;;;;;29.88;100.00;100536.22;4917176;29;20028;-71
2021/07/30 00:43:57;;;;;;;25.55;12.05;;;;;;;30.09;100.00;100534.91;4918049;29;20337;-71
2021/07/30 00:46:43;;;;;;;27.33;11.57;;;;;;;29.88;100.00;100531.69;4918012;29;20055;-71
2021/07/30 00:49:29;;;;;;;29.80;11.63;;;;;;;29.96;100.00;100533.59;4917738;29;20036;-71
2021/07/30 00:52:15;;;;;;;28.05;11.40;;;;;;;29.81;100.00;100548.66;4917683;29;20380;-70
2021/07/30 00:55:01;;;;;;;28.17;13.07;;;;;;;29.79;100.00;100588.47;4917725;29;20088;-70
2021/07/30 00:57:47;;;;;;;28.92;12.27;;;;;;;29.15;100.00;100601.13;4921291;29;20382;-71
2021/07/30 01:00:32;;;;;;;29.98;12.57;;;;;;;28.93;100.00;100571.78;4921115;29;20024;-71
2021/07/30 01:03:18;;;;;;;24.08;12.23;;;;;;;29.03;100.00;100551.91;4920233;29;20020;-70
2021/07/30 01:06:04;;;;;;;26.98;13.10;;;;;;;28.94;100.00;100574.34;4920847;29;20053;-70
2021/07/30 01:08:50;;;;;;;25.80;12.82;;;;;;;28.85;100.00;100583.28;4921590;29;20039;-69
2021/07/30 01:11:36;;;;;;;29.05;12.55;;;;;;;28.72;100.00;100577.38;4920976;29;20055;-69
2021/07/30 01:14:22;;;;;;;25.60;12.98;;;;;;;28.67;100.00;100571.56;4920106;29;20119;-70
2021/07/30 01:17:08;;;;;;;29.75;13.45;;;;;;;28.79;100.00;100577.63;4920121;29;20032;-70
2021/07/30 01:19:54;;;;;;;68.35;20.73;;;;;;;28.65;100.00;100580.81;4920853;29;20074;-71
2021/07/30 01:22:59;;;;;;;30.27;13.32;;;;;;;28.80;100.00;100564.00;4920936;29;20038;-70
2021/07/30 01:25:45;;;;;;;28.73;14.57;;;;;;;28.77;100.00;100558.06;4920992;29;20368;-70
2021/07/30 01:28:31;;;;;;;29.42;14.05;;;;;;;28.69;100.00;100556.06;4920697;29;20039;-70
2021/07/30 01:31:17;;;;;;;34.17;14.85;;;;;;;28.73;100.00;100570.97;4920966;29;20042;-72
2021/07/30 01:34:02;;;;;;;26.70;14.55;;;;;;;28.81;100.00;100572.97;4920194;29;20092;-70
2021/07/30 01:36:48;;;;;;;30.13;14.30;;;;;;;28.84;100.00;100567.25;4920494;29;20032;-70
2021/07/30 01:39:35;;;;;;;28.48;14.60;;;;;;;28.32;100.00;100563.19;4919895;29;20040;-70
2021/07/30 01:42:20;;;;;;;24.38;15.00;;;;;;;28.84;100.00;100561.84;4919876;29;20036;-71
2021/07/30 01:45:08;;;;;;;30.00;15.43;;;;;;;28.50;100.00;100566.91;4920579;29;20024;-71
2021/07/30 01:47:53;;;;;;;31.17;15.45;;;;;;;27.94;100.00;100565.91;4920609;29;20035;-71
2021/07/30 01:50:39;;;;;;;27.42;15.18;;;;;;;28.00;100.00;100557.25;4920706;29;20091;-71
2021/07/30 01:53:25;;;;;;;32.88;16.63;;;;;;;28.16;100.00;100556.72;4920129;29;20027;-70
2021/07/30 01:56:11;;;;;;;27.13;16.15;;;;;;;28.14;100.00;100561.38;4920687;29;20028;-70
2021/07/30 01:58:56;;;;;;;30.08;16.65;;;;;;;28.34;100.00;100563.94;4919362;29;20051;-71
2021/07/30 02:01:42;;;;;;;30.35;15.73;;;;;;;28.47;100.00;100571.72;4920243;29;20370;-70
2021/07/30 02:04:28;;;;;;;29.23;15.88;;;;;;;28.38;100.00;100572.56;4919953;29;20024;-71
2021/07/30 02:07:18;;;;;;;24.73;15.55;;;;;;;28.66;100.00;100583.34;4918338;29;20063;-71
2021/07/30 02:10:05;;;;;;;29.30;16.27;;;;;;;28.21;100.00;100581.38;4919419;29;20054;-70
2021/07/30 02:15:56;;;;;;;32.88;17.10;;;;;;;27.77;100.00;100590.81;4920233;29;20052;-70
2021/07/30 02:18:41;;;;;;;38.95;16.83;;;;;;;28.02;100.00;100574.13;4919857;29;20074;-71
2021/07/30 02:21:27;;;;;;;30.00;17.38;;;;;;;28.12;100.00;100566.06;4919234;29;20474;-72
2021/07/30 02:24:13;;;;;;;24.42;16.17;;;;;;;28.07;100.00;100566.47;4918863;29;20028;-71
2021/07/30 02:26:59;;;;;;;32.08;17.92;;;;;;;28.37;100.00;100579.78;4918950;29;20036;-71
2021/07/30 02:29:45;;;;;;;36.03;17.23;;;;;;;28.33;100.00;100585.63;4919642;29;20055;-72
2021/07/30 02:32:30;;;;;;;33.50;17.52;;;;;;;28.20;100.00;100582.38;4919807;29;20030;-71
2021/07/30 02:35:16;;;;;;;34.90;16.88;;;;;;;27.65;100.00;100589.22;4919623;29;20100;-72
2021/07/30 02:38:02;;;;;;;34.05;18.33;;;;;;;27.42;100.00;100607.44;4919106;29;20036;-71
2021/07/30 02:40:48;;;;;;;35.92;17.65;;;;;;;26.87;100.00;100606.97;4918171;29;20088;-71
2021/07/30 02:43:34;;;;;;;32.72;17.55;;;;;;;27.18;100.00;100614.94;4920250;29;20119;-71
2021/07/30 02:46:20;;;;;;;33.40;18.80;;;;;;;27.02;100.00;100619.09;4918578;29;20027;-71
2021/07/30 02:49:05;;;;;;;35.28;17.90;;;;;;;27.09;100.00;100615.72;4919671;29;20171;-71
2021/07/30 02:51:51;;;;;;;34.85;17.35;;;;;;;27.00;100.00;100621.03;4919953;29;20115;-71
2021/07/30 02:54:37;;;;;;;30.83;17.75;;;;;;;26.51;100.00;100631.59;4919281;29;20379;-71
2021/07/30 02:57:23;;;;;;;28.88;17.20;;;;;;;26.99;100.00;100622.91;4919556;29;20195;-71
2021/07/30 03:00:09;;;;;;;29.77;16.42;;;;;;;26.50;100.00;100627.19;4919291;29;20082;-71
2021/07/30 03:02:54;;;;;;;29.02;16.73;;;;;;;26.86;100.00;100624.09;4919039;29;20032;-71
2021/07/30 03:05:40;;;;;;;29.85;16.77;;;;;;;26.34;100.00;100633.03;4919295;29;20461;-71
2021/07/30 03:08:27;;;;;;;26.50;16.58;;;;;;;26.57;100.00;100628.38;4919378;29;20476;-71
2021/07/30 03:11:13;;;;;;;33.15;15.85;;;;;;;26.39;100.00;100627.25;4918864;29;20196;-71
2021/07/30 03:13:59;;;;;;;35.15;15.90;;;;;;;26.28;100.00;100617.41;4918566;29;20175;-71
2021/07/30 03:16:44;;;;;;;26.20;15.38;;;;;;;26.82;100.00;100615.44;4918799;29;20039;-71
2021/07/30 03:19:30;;;;;;;25.20;15.18;;;;;;;26.70;100.00;100621.88;4921412;29;20039;-70
2021/07/30 03:22:16;;;;;;;23.33;15.80;;;;;;;26.31;100.00;100624.34;4921224;29;20035;-71
2021/07/30 03:25:02;;;;;;;28.88;16.38;;;;;;;26.67;100.00;100632.03;4919118;29;20079;-71
2021/07/30 03:27:48;;;;;;;25.92;15.65;;;;;;;26.57;100.00;100634.59;4919251;29;20024;-71
2021/07/30 03:30:34;;;;;;;31.48;15.40;;;;;;;26.29;100.00;100626.31;4918594;29;20032;-71
2021/07/30 03:33:20;;;;;;;27.75;15.65;;;;;;;26.43;100.00;100629.56;4918479;29;20457;-71
2021/07/30 03:36:05;;;;;;;29.60;16.48;;;;;;;26.24;100.00;100632.06;4918446;29;20040;-71
2021/07/30 03:38:51;;;;;;;34.30;16.88;;;;;;;26.19;100.00;100641.47;4918754;29;20464;-71
2021/07/30 03:41:37;;;;;;;30.08;16.08;;;;;;;26.22;100.00;100641.25;4918320;29;20036;-71
2021/07/30 03:44:23;;;;;;;27.30;15.02;;;;;;;25.94;100.00;100647.19;4918686;29;20488;-71
2021/07/30 03:47:08;;;;;;;29.65;15.88;;;;;;;26.04;100.00;100650.84;4918402;29;20099;-71
2021/07/30 03:49:54;;;;;;;30.08;15.45;;;;;;;26.36;100.00;100649.03;4919244;29;20032;-71
2021/07/30 03:52:40;;;;;;;22.73;14.98;;;;;;;26.50;100.00;100644.19;4918478;29;20485;-71
2021/07/30 03:55:26;;;;;;;31.35;15.30;;;;;;;26.84;100.00;100624.22;4917855;29;20369;-71
2021/07/30 03:58:12;;;;;;;24.98;15.52;;;;;;;26.46;100.00;100625.75;4918107;29;20060;-71
2021/07/30 04:00:57;;;;;;;27.88;16.17;;;;;;;26.38;100.00;100606.75;4918646;29;20114;-71
2021/07/30 04:03:44;;;;;;;29.10;15.32;;;;;;;25.86;100.00;100606.66;4917870;29;20127;-71
2021/07/30 04:06:30;;;;;;;31.83;15.32;;;;;;;26.21;100.00;100615.38;4917466;29;20028;-71
2021/07/30 04:09:15;;;;;;;25.67;15.00;;;;;;;26.08;100.00;100622.75;4918235;29;20032;-71
2021/07/30 04:12:01;;;;;;;29.88;15.98;;;;;;;26.02;100.00;100624.09;4917175;29;20039;-71
2021/07/30 04:14:47;;;;;;;28.52;13.85;;;;;;;26.46;100.00;100625.75;4917932;29;20032;-70
2021/07/30 04:17:33;;;;;;;26.85;14.80;;;;;;;26.66;100.00;100628.50;4917862;29;20047;-71
2021/07/30 04:20:19;;;;;;;29.65;15.07;;;;;;;26.35;100.00;100647.28;4917259;29;20032;-71
2021/07/30 04:23:05;;;;;;;31.33;14.63;;;;;;;26.64;100.00;100654.66;4917346;29;20042;-71
2021/07/30 04:25:51;;;;;;;28.23;14.25;;;;;;;26.19;100.00;100660.28;4917887;29;20016;-71
2021/07/30 04:28:37;;;;;;;28.63;13.90;;;;;;;26.45;100.00;100669.75;4917102;29;20036;-71
2021/07/30 04:31:22;;;;;;;29.30;14.13;;;;;;;26.11;100.00;100670.81;4917659;29;20035;-71
2021/07/30 04:34:08;;;;;;;27.33;13.38;;;;;;;26.02;100.00;100671.56;4917955;29;20064;-71
2021/07/30 04:36:54;;;;;;;29.30;13.73;;;;;;;26.11;100.00;100674.34;4917796;29;20480;-71
2021/07/30 04:39:40;;;;;;;30.55;13.40;;;;;;;26.01;100.00;100675.25;4918199;29;20094;-71
2021/07/30 04:42:27;;;;;;;24.30;13.63;;;;;;;26.13;100.00;100671.56;4917527;29;20028;-71
2021/07/30 04:45:13;;;;;;;21.25;12.73;;;;;;;25.83;100.00;100664.13;4916866;29;20358;-71
2021/07/30 04:47:58;;;;;;;29.38;13.38;;;;;;;25.85;100.00;100666.69;4916815;29;20028;-71
2021/07/30 04:50:44;;;;;;;31.45;13.93;;;;;;;25.73;100.00;100663.19;4918050;29;20094;-71
2021/07/30 04:53:30;;;;;;;24.50;12.85;;;;;;;25.97;100.00;100655.00;4917406;29;20091;-70
2021/07/30 04:56:17;;;;;;;27.58;13.07;;;;;;;26.39;100.00;100659.47;4917500;29;20036;-71
2021/07/30 04:59:03;;;;;;;26.10;13.45;;;;;;;26.07;100.00;100654.09;4916499;29;20099;-71
2021/07/30 05:01:49;;;;;;;23.60;12.63;;;;;;;26.29;100.00;100655.88;4917034;29;20044;-71
2021/07/30 05:04:36;;;;;;;30.45;13.15;;;;;;;26.15;100.00;100654.31;4917167;29;20039;-71
2021/07/30 05:07:22;;;;;;;26.23;12.57;;;;;;;26.46;100.00;100669.63;4917487;29;20028;-71
2021/07/30 05:10:09;;;;;;;24.23;12.30;;;;;;;26.44;100.00;100670.72;4916694;29;20473;-70
2021/07/30 05:12:55;;;;;;;20.50;12.57;;;;;;;26.51;100.00;100666.53;4916957;29;20032;-71
2021/07/30 05:15:41;;;;;;;36.25;12.75;;;;;;;26.18;100.00;100667.50;4917232;29;20059;-71
2021/07/30 05:18:26;;;;;;;22.92;12.60;;;;;;;26.39;100.00;100672.91;4917197;29;20032;-71
2021/07/30 05:21:13;;;;;;;21.77;12.77;;;;;;;26.88;100.00;100679.44;4917670;29;20028;-71
2021/07/30 05:23:59;;;;;;;22.48;11.68;;;;;;;27.15;100.00;100686.97;4916549;29;20517;-70
2021/07/30 05:26:44;;;;;;;27.83;12.68;;;;;;;27.20;100.00;100682.06;4917146;29;20067;-70
2021/07/30 05:29:30;;;;;;;22.85;11.93;;;;;;;26.94;100.00;100681.63;4917114;29;20453;-70
2021/07/30 05:32:16;;;;;;;23.73;12.18;;;;;;;26.65;100.00;100688.59;4917184;29;20028;-71
2021/07/30 05:35:02;;;;;;;27.60;12.63;;;;;;;26.54;100.00;100682.41;4917534;29;20024;-70
2021/07/30 05:37:47;;;;;;;20.20;12.48;;;;;;;26.81;100.00;100682.78;4918140;29;20032;-70
2021/07/30 05:40:33;;;;;;;16.50;11.93;;;;;;;27.21;100.00;100673.88;4917180;29;20044;-71
2021/07/30 05:43:19;;;;;;;24.50;11.50;;;;;;;26.97;100.00;100677.81;4920511;29;20042;-71
2021/07/30 05:46:05;;;;;;;23.67;12.10;;;;;;;26.70;100.00;100686.41;4920281;29;20088;-70
2021/07/30 05:48:56;;;;;;;23.30;12.38;;;;;;;26.94;100.00;100681.63;4920226;29;20414;-70
2021/07/30 05:51:42;;;;;;;26.42;12.02;;;;;;;26.94;100.00;100676.25;4920422;29;20028;-70
2021/07/30 05:54:28;;;;;;;21.48;12.02;;;;;;;27.06;100.00;100672.50;4920113;29;20453;-71
2021/07/30 05:57:13;;;;;;;25.17;12.43;;;;;;;27.22;100.00;100672.91;4919540;29;20056;-71
2021/07/30 06:00:00;;;;;;;20.48;12.07;;;;;;;27.65;100.00;100666.44;4920110;29;20028;-71
2021/07/30 06:02:46;;;;;;;22.48;12.63;;;;;;;27.51;100.00;100670.34;4920497;29;20035;-70
2021/07/30 06:05:33;;;;;;;23.80;11.80;;;;;;;27.32;100.00;100679.19;4920192;29;20042;-71
2021/07/30 06:08:18;;;;;;;23.67;11.70;;;;;;;27.98;100.00;100680.47;4920111;29;20035;-71
2021/07/30 06:11:04;;;;;;;21.50;10.98;;;;;;;27.96;100.00;100684.28;4920057;29;20051;-71
2021/07/30 06:13:50;;;;;;;23.30;11.50;;;;;;;27.96;100.00;100679.75;4920823;29;20028;-71
2021/07/30 06:16:36;;;;;;;22.38;11.48;;;;;;;28.34;100.00;100682.50;4919128;29;20028;-71
2021/07/30 06:19:22;;;;;;;20.08;11.75;;;;;;;28.64;100.00;100670.78;4919911;29;20415;-71
2021/07/30 06:22:08;;;;;;;20.85;11.13;;;;;;;28.76;100.00;100681.25;4918663;29;20477;-71
2021/07/30 06:24:54;;;;;;;22.73;11.57;;;;;;;28.66;100.00;100677.75;4919927;29;20072;-70
2021/07/30 06:27:40;;;;;;;25.48;11.82;;;;;;;28.72;100.00;100681.72;4920192;29;20032;-71
2021/07/30 06:30:26;;;;;;;22.80;11.65;;;;;;;28.73;100.00;100676.16;4918579;29;20039;-71
2021/07/30 06:33:12;;;;;;;25.13;11.57;;;;;;;29.36;100.00;100680.91;4919915;29;20092;-71
2021/07/30 06:35:58;;;;;;;24.85;11.38;;;;;;;28.99;100.00;100676.41;4919231;29;20035;-71
2021/07/30 06:38:44;;;;;;;21.05;11.10;;;;;;;29.08;100.00;100670.16;4918029;29;20035;-71
2021/07/30 06:41:29;;;;;;;24.80;10.93;;;;;;;29.25;100.00;100666.75;4920202;29;20039;-71
2021/07/30 06:44:15;;;;;;;21.85;11.30;;;;;;;29.21;100.00;100668.84;4919062;29;20043;-71
2021/07/30 06:47:04;;;;;;;23.20;10.80;;;;;;;29.49;100.00;100670.59;4918811;29;20042;-71
2021/07/30 06:49:50;;;;;;;21.67;10.90;;;;;;;29.20;100.00;100663.59;4919364;29;20024;-70
2021/07/30 06:52:36;;;;;;;17.35;10.85;;;;;;;29.45;100.00;100665.66;4918999;29;20039;-71
2021/07/30 06:55:22;;;;;;;20.75;11.13;;;;;;;29.57;100.00;100667.19;4918801;29;20036;-70
2021/07/30 06:58:11;;;;;;;24.45;11.15;;;;;;;29.55;100.00;100672.72;4923119;29;20076;-72
2021/07/30 07:00:57;;;;;;;22.10;11.75;;;;;;;29.97;100.00;100673.97;4919642;29;20063;-70
2021/07/30 07:03:42;;;;;;;21.50;11.02;;;;;;;29.95;100.00;100665.16;4919232;29;20032;-71
2021/07/30 07:06:28;;;;;;;16.52;10.68;;;;;;;29.79;100.00;100670.38;4918635;29;20059;-70
2021/07/30 07:09:15;;;;;;;16.80;10.45;;;;;;;30.19;100.00;100670.88;4919021;29;20103;-70
2021/07/30 07:12:04;;;;;;;20.45;10.70;;;;;;;30.54;100.00;100670.03;4919383;29;20052;-71
2021/07/30 07:14:50;;;;;;;16.25;10.80;;;;;;;30.88;100.00;100671.03;4919716;29;20039;-71
2021/07/30 07:17:36;;;;;;;17.67;10.82;;;;;;;31.22;100.00;100677.38;4919605;29;20047;-71
2021/07/30 07:20:22;;;;;;;21.45;10.60;;;;;;;30.37;100.00;100685.25;4919295;29;20084;-72
2021/07/30 07:23:08;;;;;;;18.02;10.05;;;;;;;30.24;100.00;100675.81;4917837;29;20074;-70
2021/07/30 07:25:53;;;;;;;16.00;10.48;;;;;;;30.38;100.00;100681.53;4918319;29;20042;-70
2021/07/30 07:28:39;;;;;;;20.85;10.88;;;;;;;30.50;100.00;100683.00;4918388;29;20026;-70
2021/07/30 07:31:25;;;;;;;20.05;10.38;;;;;;;30.95;100.00;100672.94;4918646;29;20155;-71
2021/07/30 07:34:12;;;;;;;18.58;10.68;;;;;;;30.81;100.00;100681.63;4917784;29;20118;-72
2021/07/30 07:36:58;;;;;;;18.02;10.15;;;;;;;31.25;100.00;100680.66;4918325;29;20032;-71
2021/07/30 07:39:43;;;;;;;19.23;10.35;;;;;;;31.05;100.00;100679.13;4919365;29;20032;-70
2021/07/30 07:42:29;;;;;;;22.40;10.93;;;;;;;31.85;100.00;100686.91;4917695;29;20103;-69
2021/07/30 07:45:15;;;;;;;22.77;10.63;;;;;;;31.71;100.00;100687.50;4918202;29;20047;-70
2021/07/30 07:48:04;;;;;;;15.85;9.70;;;;;;;31.89;100.00;100687.44;4918176;29;20456;-70
2021/07/30 07:50:56;;;;;;;18.15;9.93;;;;;;;31.75;100.00;100685.31;4921737;29;20135;-69
2021/07/30 07:53:42;;;;;;;18.08;9.73;;;;;;;31.97;100.00;100684.78;4919257;29;20431;-71
2021/07/30 07:56:28;;;;;;;18.55;9.80;;;;;;;32.36;100.00;100678.63;4917888;29;20135;-70
2021/07/30 07:59:14;;;;;;;18.77;10.30;;;;;;;32.57;100.00;100673.56;4917633;29;20142;-69
2021/07/30 08:02:04;;;;;;;19.48;9.70;;;;;;;33.08;97.77;100680.53;4917561;29;20036;-70
2021/07/30 08:04:50;;;;;;;22.90;10.38;;;;;;;33.29;99.53;100679.00;4916908;29;20110;-71
2021/07/30 08:07:36;;;;;;;20.73;10.43;;;;;;;33.22;97.77;100682.56;4916867;29;20132;-71
2021/07/30 08:10:22;;;;;;;20.38;9.73;;;;;;;33.47;96.26;100679.63;4917050;29;20031;-71
2021/07/30 08:13:12;;;;;;;20.40;10.43;;;;;;;33.48;94.92;100675.06;4917348;29;20078;-71
2021/07/30 08:15:58;;;;;;;17.20;9.90;;;;;;;33.85;94.42;100675.28;4917908;29;20032;-71
2021/07/30 08:18:43;;;;;;;17.65;10.02;;;;;;;33.94;94.02;100675.09;4917393;29;20032;-71
2021/07/30 08:21:30;;;;;;;22.92;9.77;;;;;;;34.05;88.77;100671.13;4917889;29;20028;-71
2021/07/30 08:24:16;;;;;;;14.05;9.75;;;;;;;33.27;93.63;100669.31;4916656;29;20087;-71
2021/07/30 08:27:06;;;;;;;16.90;10.00;;;;;;;33.59;99.22;100671.97;4916985;29;20083;-72
2021/07/30 08:29:52;;;;;;;17.83;9.60;;;;;;;34.33;96.56;100677.78;4916702;29;20028;-72
2021/07/30 08:32:37;;;;;;;16.13;9.18;;;;;;;34.55;89.65;100676.97;4917963;29;20062;-71
2021/07/30 08:35:23;;;;;;;18.83;9.73;;;;;;;34.71;90.48;100669.50;4916742;29;20426;-72
2021/07/30 08:38:09;;;;;;;16.95;9.88;;;;;;;34.99;93.31;100667.06;4917456;29;20028;-71
2021/07/30 08:40:56;;;;;;;17.42;9.93;;;;;;;35.27;91.04;100659.97;4916896;29;20402;-72
2021/07/30 08:43:41;;;;;;;15.60;9.45;;;;;;;35.68;87.95;100665.84;4916856;29;20024;-72
2021/07/30 08:46:30;;;;;;;16.33;10.15;;;;;;;35.81;86.85;100664.19;4916597;29;20663;-72
2021/07/30 08:49:15;;;;;;;16.75;9.60;;;;;;;35.09;91.62;100667.66;4918155;29;20049;-72
2021/07/30 08:52:12;;;;;;;14.13;9.27;;;;;;;35.58;88.93;100659.81;4917398;29;20028;-72
2021/07/30 08:54:58;;;;;;;18.48;10.10;;;;;;;35.26;91.62;100658.28;4916934;29;20111;-72
2021/07/30 08:57:44;;;;;;;21.00;10.02;;;;;;;35.26;92.26;100652.84;4917588;29;20063;-72
2021/07/30 09:00:29;;;;;;;13.52;9.48;;;;;;;35.22;91.62;100667.88;4917109;29;20091;-72
2021/07/30 09:03:15;;;;;;;17.40;9.55;;;;;;;34.75;97.31;100662.66;4917077;29;20054;-72
2021/07/30 09:06:24;;;;;;;14.93;8.55;;;;;;;34.86;97.06;100653.22;4916161;29;20176;-73
2021/07/30 09:09:12;;;;;;;18.88;9.93;;;;;;;34.85;97.77;100662.44;4918330;29;20028;-72
2021/07/30 09:12:00;;;;;;;14.88;10.02;;;;;;;34.83;97.63;100646.28;4916440;29;20046;-72
2021/07/30 09:14:46;;;;;;;13.88;9.40;;;;;;;35.06;94.90;100641.63;4916572;29;20368;-73
2021/07/30 09:17:40;;;;;;;17.98;9.60;;;;;;;35.16;94.33;100642.19;4918716;29;20032;-72
2021/07/30 09:20:25;;;;;;;18.10;9.70;;;;;;;34.98;95.14;100636.28;4920919;29;20040;-71
2021/07/30 09:23:16;;;;;;;16.10;9.57;;;;;;;34.96;95.15;100638.31;4919860;29;20361;-71
2021/07/30 09:26:02;;;;;;;17.77;9.63;;;;;;;34.94;95.72;100634.94;4920557;29;20039;-72
2021/07/30 09:28:57;;;;;;;15.55;9.43;;;;;;;34.99;97.07;100635.22;4919713;29;20031;-71
2021/07/30 09:31:53;;;;;;;16.10;9.80;;;;;;;35.16;92.56;100631.31;4919827;29;20032;-72
2021/07/30 09:34:51;;;;;;;17.58;10.20;;;;;;;35.16;94.54;100619.59;4920116;29;20039;-72
2021/07/30 09:37:37;;;;;;;17.85;9.65;;;;;;;35.34;94.81;100614.63;4920309;29;20357;-71
2021/07/30 09:40:23;;;;;;;16.67;9.80;;;;;;;35.00;94.69;100619.75;4920047;29;20425;-73
2021/07/30 09:43:25;;;;;;;16.88;9.55;;;;;;;35.16;95.52;100614.97;4920361;29;20099;-71
2021/07/30 09:46:14;;;;;;;17.38;9.82;;;;;;;35.19;95.66;100611.88;4919798;29;20176;-69
2021/07/30 09:49:00;;;;;;;18.50;9.77;;;;;;;35.34;96.24;100617.34;4920093;29;20350;-69
2021/07/30 09:51:46;;;;;;;21.75;9.93;;;;;;;35.30;94.93;100612.44;4920231;29;20032;-72
2021/07/30 09:54:33;;;;;;;17.73;9.55;;;;;;;35.67;92.68;100607.72;4919494;29;20524;-72
2021/07/30 09:57:27;;;;;;;16.30;9.55;;;;;;;35.77;92.07;100605.59;4920147;29;20056;-72
2021/07/30 10:00:16;;;;;;;15.32;9.63;;;;;;;35.76;92.36;100603.91;4919607;29;20505;-72
2021/07/30 10:03:02;;;;;;;14.15;9.18;;;;;;;34.94;95.10;100604.13;4919770;29;20474;-73
2021/07/30 10:05:52;;;;;;;14.65;10.07;;;;;;;35.08;94.51;100592.44;4919490;29;20024;-70
2021/07/30 10:08:37;;;;;;;24.75;9.80;;;;;;;35.53;93.94;100594.97;4918979;29;20028;-70
2021/07/30 10:11:23;;;;;;;15.63;9.50;;;;;;;35.26;94.74;100590.16;4919366;29;20529;-70
2021/07/30 10:14:11;;;;;;;17.00;9.40;;;;;;;34.83;97.31;100585.50;4920203;29;20050;-72
2021/07/30 10:17:03;;;;;;;18.63;9.00;;;;;;;35.12;96.29;100588.28;4919628;29;20065;-72
2021/07/30 10:19:49;;;;;;;24.02;9.75;;;;;;;35.02;97.44;100583.13;4920203;29;20032;-71
2021/07/30 10:22:38;;;;;;;20.45;9.02;;;;;;;34.89;97.60;100587.50;4919944;29;20063;-70
2021/07/30 10:25:29;;;;;;;19.05;9.25;;;;;;;35.09;97.85;100575.91;4919715;29;20039;-71
2021/07/30 10:28:28;;;;;;;18.15;9.25;;;;;;;34.94;96.48;100571.44;4918740;29;20051;-72
2021/07/30 10:31:15;;;;;;;14.95;9.88;;;;;;;34.98;96.93;100576.34;4920411;29;20028;-72
2021/07/30 10:34:01;;;;;;;19.10;9.55;;;;;;;35.22;95.91;100567.91;4919540;29;20032;-71
2021/07/30 10:36:46;;;;;;;19.13;9.77;;;;;;;34.97;97.42;100561.06;4918780;29;20505;-71
2021/07/30 10:39:32;;;;;;;20.02;9.80;;;;;;;35.40;92.86;100564.84;4918891;29;20035;-71
2021/07/30 10:42:18;;;;;;;15.80;8.63;;;;;;;35.36;93.83;100562.66;4918552;29;20024;-71
2021/07/30 10:45:19;;;;;;;16.50;9.63;;;;;;;35.62;92.45;100560.25;4918827;29;20066;-71
2021/07/30 10:48:25;;;;;;;19.13;9.65;;;;;;;35.16;94.38;100549.56;4918502;29;20376;-71
2021/07/30 10:54:06;;;;;;;14.73;9.63;;;;;;;35.37;92.08;100543.41;4918904;29;20039;-71
2021/07/30 10:56:51;;;;;;;17.10;9.27;;;;;;;35.54;90.54;100531.25;4918759;29;20043;-71
2021/07/30 11:00:01;;;;;;;14.85;9.15;;;;;;;35.92;89.92;100537.38;4919770;29;20361;-71
2021/07/30 11:03:08;;;;;;;17.27;9.18;;;;;;;35.98;89.53;100531.13;4917982;29;20449;-71
2021/07/30 11:06:13;;;;;;;21.60;9.23;;;;;;;35.60;89.01;100529.63;4919804;29;20369;-72
2021/07/30 11:09:03;;;;;;;15.88;8.60;;;;;;;36.01;89.27;100528.88;4919906;29;20032;-71
2021/07/30 11:11:57;;;;;;;18.80;9.18;;;;;;;36.05;89.48;100529.31;4919415;29;20115;-69
2021/07/30 11:14:45;;;;;;;23.30;9.35;;;;;;;35.72;89.73;100520.78;4918923;29;20036;-72
2021/07/30 11:17:35;;;;;;;14.63;9.02;;;;;;;36.08;87.92;100520.75;4919178;29;20036;-70
2021/07/30 11:20:22;;;;;;;17.23;9.15;;;;;;;35.91;86.65;100522.06;4919190;29;20039;-71
2021/07/30 11:23:10;;;;;;;19.48;9.20;;;;;;;35.76;89.12;100522.09;4918592;29;20099;-71
2021/07/30 11:26:03;;;;;;;14.20;8.90;;;;;;;36.02;88.58;100521.50;4918196;29;20119;-70
2021/07/30 11:28:56;;;;;;;13.93;8.73;;;;;;;36.32;87.33;100518.47;4918742;29;20043;-70
2021/07/30 11:32:07;;;;;;;22.20;9.18;;;;;;;36.28;86.07;100524.53;4917863;29;20032;-71
2021/07/30 11:34:55;;;;;;;17.50;9.02;;;;;;;36.28;86.79;100519.91;4918581;29;20174;-71
2021/07/30 11:37:40;;;;;;;16.08;9.18;;;;;;;36.28;85.05;100514.44;4916951;29;20032;-72
2021/07/30 11:40:31;;;;;;;22.20;9.43;;;;;;;36.50;84.86;100527.03;4917719;29;20457;-72
2021/07/30 11:43:16;;;;;;;17.75;8.98;;;;;;;36.45;84.29;100509.56;4917920;29;20186;-71
2021/07/30 11:46:12;;;;;;;14.75;8.90;;;;;;;36.50;83.88;100504.34;4918323;29;20032;-72
2021/07/30 11:48:59;;;;;;;13.35;9.02;;;;;;;36.50;85.35;100499.72;4917937;29;20100;-72
2021/07/30 11:51:45;;;;;;;12.45;8.57;;;;;;;36.75;84.43;100492.78;4918382;29;20508;-71
2021/07/30 11:54:32;;;;;;;16.80;9.25;;;;;;;36.81;82.27;100492.00;4917668;29;20138;-72
2021/07/30 11:57:25;;;;;;;13.98;8.82;;;;;;;36.89;82.01;100499.19;4917323;29;20134;-72
2021/07/30 12:00:27;;;;;;;14.77;8.90;;;;;;;36.62;82.26;100484.50;4917381;29;20028;-72
2021/07/30 12:03:22;;;;;;;14.80;9.15;;;;;;;37.01;81.95;100487.50;4917641;29;20065;-72
2021/07/30 12:06:08;;;;;;;14.25;9.02;;;;;;;37.32;80.67;100482.41;4917139;29;20369;-72
2021/07/30 12:08:55;;;;;;;17.13;8.98;;;;;;;37.33;79.80;100475.88;4917780;29;20378;-72
2021/07/30 12:11:50;;;;;;;20.33;9.18;;;;;;;37.09;79.44;100468.22;4917096;29;20111;-72
2021/07/30 12:14:37;;;;;;;17.30;8.57;;;;;;;37.36;77.74;100471.91;4917439;29;20028;-72
2021/07/30 12:17:23;;;;;;;15.35;8.98;;;;;;;37.38;77.23;100464.34;4916958;29;20028;-72
2021/07/30 12:20:13;;;;;;;19.58;8.65;;;;;;;37.21;79.51;100461.09;4916818;29;20047;-71
2021/07/30 12:23:07;;;;;;;14.80;8.73;;;;;;;36.91;79.69;100454.22;4917347;29;20350;-72
2021/07/30 12:25:54;;;;;;;17.63;9.05;;;;;;;36.57;84.10;100447.91;4916925;29;20047;-72
2021/07/30 12:28:44;;;;;;;12.98;8.27;;;;;;;37.09;82.55;100453.69;4916993;29;20028;-72
2021/07/30 12:31:31;;;;;;;22.90;8.80;;;;;;;37.02;81.61;100456.41;4916892;29;20040;-72
2021/07/30 12:34:19;;;;;;;14.70;8.68;;;;;;;36.87;84.32;100452.94;4916637;29;20040;-72
2021/07/30 12:37:11;;;;;;;11.82;7.95;;;;;;;37.20;83.35;100445.75;4916939;29;20077;-72
2021/07/30 12:39:59;;;;;;;20.55;9.60;;;;;;;36.98;83.79;100441.44;4917416;29;20119;-70
2021/07/30 12:42:44;;;;;;;18.27;9.30;;;;;;;37.04;83.04;100440.63;4917532;29;20364;-71
2021/07/30 12:45:49;;;;;;;14.25;8.88;;;;;;;36.80;86.04;100432.94;4917045;29;20111;-72